Latest Weather Observations for Ferny Creek

IDV60801

Issued at 3:02 pm EST Saturday 4 July 2015 (issued every 30 minutes, with the page automatically refreshed every 10 minutes)

About weather observations | Map of weather stations | Latest weather observations for VIC | Other Formats
Station Details ID: 086266 Name: FERNY CREEK Lat: -37.87 Lon: 145.35 Height: 512.9 m
Data from the previous 72 hours. | See also: Recent months at Ferny Creek
Date/Time
EST
Temp
°C
App
Temp
°C
Dew
Point
Rel
Hum
%
Delta-T
°C
Wind Press
QNH
hPa
Press
MSL
hPa
Rain
since 9 am
mm
Dir
 
Spd
km/h
Gust
km/h
Spd
kts
Gust
kts
04/03:00pm 4.9 2.4 4.0 94 0.4 NW 6 11 3 6 1020.7 1021.6 5.8
04/02:30pm 4.9 2.3 4.2 95 0.3 NW 7 13 4 7 1020.6 1021.5 5.8
04/02:00pm 4.9 2.3 4.2 95 0.3 NW 7 15 4 8 1020.7 1021.6 5.6
04/01:30pm 4.8 2.2 4.1 95 0.3 NW 7 15 4 8 1020.8 1021.7 5.6
04/01:00pm 4.9 2.3 4.2 95 0.3 NW 7 13 4 7 1021.1 1021.9 5.6
04/12:30pm 4.6 1.9 3.9 95 0.3 NW 7 15 4 8 1021.3 1022.1 5.6
04/12:00pm 4.7 2.6 3.8 94 0.4 NW 4 9 2 5 1021.7 1022.6 4.6
04/11:30am 5.1 2.7 4.1 93 0.4 NW 6 15 3 8 1021.8 1022.7 3.4
04/11:00am 4.9 2.2 3.9 93 0.4 NNW 7 17 4 9 1022.1 1023.0 3.2
04/10:30am 4.4 1.8 3.1 91 0.5 NNW 6 15 3 8 1022.3 1023.2 3.0
04/10:00am 4.5 1.8 2.7 88 0.8 NNW 6 15 3 8 1022.2 1023.1 1.4
04/09:30am 5.0 2.0 1.7 79 1.4 NW 7 19 4 10 1022.1 1023.0 0.4
04/09:00am 5.7 2.8 1.6 75 1.7 NNW 6 13 3 7 1021.8 1022.7 0.0
04/08:30am 5.5 2.4 1.2 74 1.8 NNW 7 20 4 11 1021.8 1022.7 0.0
04/08:00am 5.3 2.4 1.2 75 1.7 NNW 6 11 3 6 1021.5 1022.3 0.0
04/07:30am 5.1 1.5 0.5 72 1.8 NW 9 17 5 9 1021.7 1022.6 0.0
04/07:00am 4.9 1.7 0.5 73 1.7 NW 7 17 4 9 1021.6 1022.5 0.0
04/06:30am 4.9 1.7 0.7 74 1.7 NW 7 17 4 9 1021.5 1022.3 0.0
04/06:00am 5.0 1.8 0.8 74 1.7 NW 7 17 4 9 1021.4 1022.2 0.0
04/05:30am 5.0 1.4 0.4 72 1.8 NW 9 15 5 8 1021.3 1022.1 0.0
04/05:00am 4.8 1.7 0.4 73 1.7 NNW 6 13 3 7 1021.2 1022.0 0.0
04/04:30am 4.6 1.5 0.2 73 1.7 NW 6 17 3 9 1021.5 1022.3 0.0
04/04:00am 4.4 0.3 0.0 73 1.7 NW 11 22 6 12 1021.3 1022.1 0.0
04/03:30am 4.2 0.9 0.0 74 1.6 NNW 7 13 4 7 1021.6 1022.5 0.0
04/03:00am 4.3 1.2 -0.1 73 1.7 NNW 6 13 3 7 1022.0 1022.9 0.0
04/02:30am 4.2 1.1 0.0 74 1.6 NW 6 17 3 9 1022.2 1023.1 0.0
04/02:00am 4.2 1.4 -0.2 73 1.7 NNW 4 9 2 5 1022.4 1023.3 0.0
04/01:30am 4.1 1.0 -0.1 74 1.6 NNW 6 11 3 6 1022.5 1023.4 0.0
04/01:00am 4.2 1.0 -0.4 72 1.8 NNW 6 15 3 8 1022.7 1023.6 0.0
04/12:30am 4.3 1.1 -0.5 71 1.9 NNW 6 19 3 10 1022.9 1023.8 0.0
04/12:00am 4.1 1.3 -0.3 73 1.7 NNW 4 9 2 5 1023.3 1024.2 0.0
 
Date/Time
EST
Temp
°C
App
Temp
°C
Dew
Point
Rel
Hum
%
Delta-T
°C
Wind Press
QNH
hPa
Press
MSL
hPa
Rain
since 9 am
mm
Dir
 
Spd
km/h
Gust
km/h
Spd
kts
Gust
kts
03/11:30pm 4.0 1.3 0.0 75 1.6 NNW 4 11 2 6 1023.4 1024.3 0.0
03/11:00pm 3.8 0.7 0.3 78 1.4 NW 6 13 3 7 1023.5 1024.4 0.0
03/10:30pm 3.9 0.7 0.6 79 1.3 NW 7 17 4 9 1023.5 1024.4 0.0
03/10:00pm 3.9 1.2 0.4 78 1.4 NW 4 13 2 7 1023.7 1024.6 0.0
03/09:30pm 3.7 1.0 0.6 80 1.2 NW 4 13 2 7 1024.0 1024.9 0.0
03/09:00pm 3.6 1.0 0.8 82 1.1 NW 4 9 2 5 1024.2 1025.1 0.0
03/08:30pm 3.1 1.4 1.8 91 0.5 CALM 0 2 0 1 1024.3 1025.2 0.0
03/08:00pm 3.4 1.7 2.1 91 0.5 CALM 0 0 0 0 1024.4 1025.3 0.0
03/07:30pm 3.5 1.8 2.0 90 0.6 CALM 0 0 0 0 1024.5 1025.4 0.0
03/07:00pm 3.6 1.9 2.1 90 0.6 CALM 0 2 0 1 1024.5 1025.4 0.0
03/06:30pm 3.5 1.8 1.9 89 0.7 CALM 0 4 0 2 1024.6 1025.5 0.0
03/06:00pm 3.4 1.3 1.9 90 0.6 WNW 2 4 1 2 1024.4 1025.3 0.0
03/05:30pm 4.2 2.6 2.6 89 0.7 CALM 0 0 0 0 1024.3 1025.2 0.0
03/05:00pm 4.8 3.3 3.1 89 0.7 CALM 0 0 0 0 1024.6 1025.5 0.0
03/04:30pm 4.9 3.4 2.8 86 0.9 CALM 0 2 0 1 1024.9 1025.9 0.0
03/04:00pm 5.1 3.6 2.8 85 1.0 CALM 0 4 0 2 1024.9 1025.9 0.0
03/03:30pm 5.1 3.2 3.0 86 0.9 NW 2 6 1 3 1024.9 1025.9 0.0
03/03:00pm 5.1 3.2 2.8 85 1.0 NW 2 6 1 3 1025.0 1026.0 0.0
03/02:30pm 5.2 3.7 3.1 86 0.9 CALM 0 2 0 1 1025.0 1026.0 0.0
03/02:00pm 5.3 3.5 3.5 88 0.8 N 2 4 1 2 1025.0 1026.0 0.0
03/01:30pm 5.0 2.8 3.2 88 0.8 NW 4 11 2 6 1025.6 1026.5 0.0
03/01:00pm 5.0 2.3 2.9 86 0.9 NW 6 13 3 7 1025.8 1026.7 0.0
03/12:30pm 4.6 2.3 2.9 89 0.7 NW 4 9 2 5 1026.1 1027.0 0.0
03/12:00pm 4.0 1.7 2.8 92 0.5 NW 4 6 2 3 1026.4 1027.3 0.0
03/11:30am 4.4 2.3 3.7 95 0.3 NW 4 9 2 5 1026.7 1027.7 0.0
03/11:00am 4.3 2.2 3.9 97 0.2 NW 4 7 2 4 1027.0 1028.0 0.0
03/10:30am 3.9 1.4 3.5 97 0.2 NW 6 9 3 5 1027.5 1028.4 0.0
03/10:00am 3.8 1.2 3.4 97 0.2 NW 6 9 3 5 1027.5 1028.4 0.0
03/09:30am 3.9 1.4 3.5 97 0.2 NW 6 9 3 5 1027.5 1028.4 0.0
03/09:00am 4.1 2.0 3.7 97 0.2 NW 4 7 2 4 1027.0 1028.0 3.8
03/08:30am 3.8 2.0 3.4 97 0.2 NW 2 6 1 3 1026.8 1027.8 3.8
03/08:00am 3.8 2.0 3.4 97 0.2 NW 2 4 1 2 1026.7 1027.7 3.8
03/07:30am 3.7 1.9 3.3 97 0.2 NW 2 4 1 2 1026.6 1027.6 3.8
03/07:00am 3.7 1.9 3.3 97 0.2 NW 2 6 1 3 1026.5 1027.5 3.6
03/06:30am 3.7 1.5 3.1 96 0.3 NW 4 6 2 3 1026.4 1027.3 3.6
03/06:00am 3.6 2.1 3.0 96 0.2 CALM 0 0 0 0 1026.3 1027.2 3.6
03/05:30am 3.8 2.3 3.2 96 0.3 CALM 0 4 0 2 1026.2 1027.1 3.6
03/05:00am 3.8 2.0 3.2 96 0.3 NW 2 4 1 2 1026.2 1027.1 3.6
03/04:30am 3.8 2.0 3.2 96 0.3 NW 2 6 1 3 1026.3 1027.2 3.6
03/04:00am 3.5 1.6 2.9 96 0.2 WSW 2 6 1 3 1026.2 1027.1 3.6
03/03:30am 3.4 1.8 2.7 95 0.3 CALM 0 6 0 3 1026.4 1027.3 3.6
03/03:00am 4.0 2.2 3.4 96 0.3 NW 2 4 1 2 1026.5 1027.5 3.6
03/02:30am 4.2 2.8 3.6 96 0.3 CALM 0 2 0 1 1026.6 1027.6 3.6
03/02:00am 4.1 2.7 3.5 96 0.3 CALM 0 4 0 2 1026.7 1027.7 3.6
03/01:30am 4.4 2.7 3.8 96 0.3 WSW 2 4 1 2 1026.6 1027.6 3.6
03/01:00am 3.7 1.8 3.0 95 0.3 W 2 6 1 3 1026.6 1027.6 3.6
03/12:30am 4.2 2.4 3.5 95 0.3 W 2 7 1 4 1026.7 1027.7 3.6
03/12:00am 4.5 2.8 3.8 95 0.3 W 2 6 1 3 1026.9 1027.9 3.6
 
Date/Time
EST
Temp
°C
App
Temp
°C
Dew
Point
Rel
Hum
%
Delta-T
°C
Wind Press
QNH
hPa
Press
MSL
hPa
Rain
since 9 am
mm
Dir
 
Spd
km/h
Gust
km/h
Spd
kts
Gust
kts
02/11:30pm 4.4 2.6 3.7 95 0.3 NNW 2 9 1 5 1027.2 1028.1 3.6
02/11:00pm 4.4 2.3 3.7 95 0.3 WSW 4 9 2 5 1027.0 1028.0 3.6
02/10:30pm 4.1 2.3 3.4 95 0.3 W 2 6 1 3 1027.2 1028.1 3.6
02/10:00pm 3.8 1.9 2.8 93 0.4 SW 2 9 1 5 1027.0 1028.0 3.6
02/09:30pm 4.5 2.7 3.6 94 0.4 SSW 2 7 1 4 1026.9 1027.9 3.6
02/09:00pm 4.4 2.6 3.2 92 0.5 NW 2 6 1 3 1026.7 1027.7 3.6
02/08:30pm 4.8 2.9 2.8 87 0.8 W 2 7 1 4 1026.3 1027.2 2.4
02/08:00pm 4.4 1.6 1.9 84 1.0 W 6 11 3 6 1026.2 1027.1 2.4
02/07:30pm 4.4 1.6 2.3 86 0.9 SW 6 17 3 9 1025.9 1026.8 2.4
02/07:00pm 4.7 2.0 2.9 88 0.8 W 6 11 3 6 1025.6 1026.5 2.4
02/06:30pm 4.3 2.0 2.7 89 0.7 WSW 4 13 2 7 1025.4 1026.3 2.4
02/06:00pm 5.0 2.7 2.5 84 1.0 NW 4 13 2 7 1025.2 1026.1 2.2
02/05:30pm 4.6 2.5 1.8 82 1.1 W 2 7 1 4 1024.8 1025.8 2.2
02/05:00pm 4.9 2.1 2.3 83 1.1 WSW 6 13 3 7 1024.6 1025.5 2.2
02/04:30pm 5.5 2.7 2.3 80 1.3 WSW 6 9 3 5 1024.2 1025.1 2.2
02/04:00pm 5.8 3.9 3.0 82 1.2 SSE 2 6 1 3 1024.1 1025.0 2.2
02/03:30pm 5.2 2.4 2.2 81 1.3 SSW 6 19 3 10 1023.9 1024.8 2.0
02/03:00pm 5.3 1.9 2.1 80 1.3 WSW 9 20 5 11 1023.4 1024.3 2.0
02/02:30pm 5.2 2.4 3.2 87 0.9 WSW 7 20 4 11 1023.3 1024.2 2.0
02/02:00pm 7.1 3.5 2.8 74 1.8 SW 11 28 6 15 1022.6 1023.5 1.6
02/01:30pm 5.9 1.7 1.6 74 1.8 W 13 28 7 15 1022.4 1023.3 1.6
02/01:00pm 5.8 1.6 1.9 76 1.6 WSW 13 37 7 20 1021.9 1022.8 1.6
02/12:30pm 5.5 2.4 3.5 87 0.9 WSW 9 24 5 13 1021.8 1022.7 1.6
02/12:00pm 5.3 2.2 3.5 88 0.8 W 9 22 5 12 1021.7 1022.6 1.6
02/11:30am 5.0 2.5 3.7 91 0.6 WSW 6 17 3 9 1021.4 1022.2 1.6
02/11:00am 4.7 2.2 3.8 94 0.4 W 6 17 3 9 1021.3 1022.1 1.2
02/10:30am 4.5 2.4 3.9 96 0.3 WNW 4 9 2 5 1021.1 1021.9 1.0
02/10:00am 4.7 -0.4 3.2 90 0.6 W 19 44 10 24 1020.7 1021.6 0.2
02/09:30am 5.4 2.7 3.6 88 0.8 W 7 20 4 11 1020.0 1020.9 0.0
02/09:00am 5.2 2.8 4.2 93 0.4 WSW 6 15 3 8 1019.6 1020.4 5.4
02/08:30am 5.1 3.5 4.4 95 0.3 WSW 2 7 1 4 1019.5 1020.3 5.2
02/08:00am 4.9 3.2 4.2 95 0.3 WNW 2 6 1 3 1019.2 1020.0 5.2
02/07:30am 5.5 3.6 4.9 96 0.3 W 4 11 2 6 1019.1 1019.9 5.2
02/07:00am 5.9 3.7 5.3 96 0.3 WNW 6 17 3 9 1018.7 1019.6 5.2
02/06:30am 6.6 4.6 6.2 97 0.2 W 6 13 3 7 1018.5 1019.4 5.2
02/06:00am 6.8 5.2 6.4 97 0.2 WSW 4 11 2 6 1018.2 1019.0 5.2
02/05:30am 6.5 4.5 6.1 97 0.2 WSW 6 17 3 9 1017.9 1018.7 5.2
02/05:00am 6.4 4.3 6.0 97 0.2 WNW 6 13 3 7 1017.9 1018.7 3.8
02/04:30am 6.3 4.2 5.7 96 0.3 WSW 6 15 3 8 1017.7 1018.5 3.0
02/04:00am 6.4 4.7 5.8 96 0.3 W 4 9 2 5 1017.7 1018.5 2.2
02/03:30am 6.5 4.4 5.8 95 0.3 WNW 6 13 3 7 1018.1 1018.9 0.8
02/03:00am 6.5 3.8 5.6 94 0.4 WNW 9 19 5 10 1018.5 1019.4 0.4
02/02:30am 6.8 4.0 5.1 89 0.8 NW 9 19 5 10 1018.4 1019.3 0.0
02/02:00am 6.9 4.0 4.9 87 0.9 NW 9 19 5 10 1018.5 1019.4 0.0
02/01:30am 6.8 3.9 4.6 86 1.0 NW 9 22 5 12 1018.9 1019.7 0.0
02/01:00am 6.7 3.8 4.5 86 1.0 NW 9 22 5 12 1019.5 1020.3 0.0
02/12:30am 6.8 3.5 4.5 85 1.0 NW 11 20 6 11 1019.8 1020.6 0.0
02/12:00am 6.9 3.2 4.2 83 1.2 NW 13 32 7 17 1020.1 1021.0 0.0
 
Date/Time
EST
Temp
°C
App
Temp
°C
Dew
Point
Rel
Hum
%
Delta-T
°C
Wind Press
QNH
hPa
Press
MSL
hPa
Rain
since 9 am
mm
Dir
 
Spd
km/h
Gust
km/h
Spd
kts
Gust
kts
01/11:30pm 6.9 3.1 4.0 82 1.3 NW 13 26 7 14 1020.4 1021.3 0.0
01/11:00pm 6.9 3.8 3.5 79 1.5 NW 9 22 5 12 1020.5 1021.4 0.0
01/10:30pm 7.1 3.6 3.3 77 1.7 NW 11 22 6 12 1021.1 1021.9 0.0
01/10:00pm 7.1 3.6 3.3 77 1.7 NW 11 26 6 14 1021.4 1022.2 0.0
01/09:30pm 7.1 4.3 3.0 75 1.8 NW 7 20 4 11 1021.4 1022.2 0.0
01/09:00pm 7.2 3.9 2.7 73 1.9 NW 9 22 5 12 1021.5 1022.3 0.0
01/08:30pm 7.1 4.1 2.2 71 2.1 NNW 7 24 4 13 1021.7 1022.6 0.0
01/08:00pm 7.1 3.7 2.0 70 2.1 NNW 9 22 5 12 1021.8 1022.7 0.0
01/07:30pm 7.0 4.0 1.7 69 2.2 NNW 7 19 4 10 1021.9 1022.8 0.0
01/07:00pm 7.4 4.4 1.7 67 2.4 NW 7 19 4 10 1022.0 1022.9 0.0
01/06:30pm 7.2 4.2 1.9 69 2.2 NW 7 20 4 11 1022.0 1022.9 0.0
01/06:00pm 7.0 4.0 1.7 69 2.2 NNW 7 20 4 11 1022.0 1022.9 0.0
01/05:30pm 7.0 4.1 1.7 69 2.2 NNW 6 17 3 9 1022.2 1023.1 0.0
01/05:00pm 7.3 4.5 1.8 68 2.3 NNW 6 13 3 7 1022.3 1023.2 0.0
01/04:30pm 8.0 5.0 2.0 66 2.6 NW 7 15 4 8 1022.6 1023.5 0.0
01/04:00pm 8.1 5.4 2.4 67 2.4 NW 6 15 3 8 1022.6 1023.5 0.0
01/03:30pm 8.3 6.3 2.1 65 2.7 NW 2 11 1 6 1022.8 1023.7 0.0

Other Formats:

Comma delimited format used in spreadsheet applications
http://www.bom.gov.au/fwo/IDV60801/IDV60801.94872.axf

JavaScript Object Notation format (JSON) in row-major order
http://www.bom.gov.au/fwo/IDV60801/IDV60801.94872.json